Aviation Digital Data Service (ADDS)

Output produced by TAFs form (1213 UTC 24 February 2018)
found at http://aviationweather.gov/adds/tafs/
 
METAR text: RKSI 241200Z 35004KT CAVOK M01/M09 Q1028 NOSIG
Conditions at: RKSI (CHAJANG NI , KR) observed 1200 UTC 24 February 2018
Temperature: -1.0°C (30°F)
Dewpoint: -9.0°C (16°F) [RH = 55%]
Pressure (altimeter): 30.35 inches Hg (1028.0 mb)
Winds: from the N (350 degrees) at 5 MPH (4 knots; 2.1 m/s)
Visibility: 6 or more miles (10+ km)
Ceiling: ceiling and visibility are OK
Clouds: unknown
Weather: no significant weather observed at this time

Forecast for: RKSI (CHAJANG NI , KR)
Text: TAF RKSI 241100Z 2412/2518 31007KT 7000 NSC TNM03/2421Z TX05/2505Z
Forecast period: 1200 UTC 24 February 2018 to 1800 UTC 25 February 2018
Forecast type: FROM: standard forecast or significant change
Winds: from the NW (310 degrees) at 8 MPH (7 knots; 3.6 m/s)
Visibility: 4 miles (7 km)
Clouds: not forecast
Weather: no significant weather forecast for this period